AFX72T EDDK-ENCN
Flight info
| Callsign | AFX72T |
|---|---|
| Flight time | 1h 14m |
| Altitude | 35000 |
| Route | PODIP2Q PODIP DCT BMN DCT KEMEG DCT RASVI |
| Aircraft | A320/M-SDE3FGHIRWY/LB1 |
Departure
| Time | 2026-04-22 20:02 |
|---|---|
| Airport | Cologne Bonn Airport (EDDK) |
Arrival
| Time | 2026-04-22 21:17 |
|---|---|
| Airport | Kristiansand Airport (ENCN) |
| Time | Latitude | Longitude | Altitude | Speed | Heading |
|---|---|---|---|---|---|
| 2026-04-22 19:28 | 50.88150 | 7.11997 | 232 ft | 0 kts | 216° |
| 2026-04-22 19:39 | 50.88164 | 7.12013 | 232 ft | 4 kts | 220° |
| 2026-04-22 19:39 | 50.88183 | 7.12038 | 233 ft | 4 kts | 210° |
| 2026-04-22 19:39 | 50.88203 | 7.12042 | 234 ft | 4 kts | 137° |
| 2026-04-22 19:40 | 50.88219 | 7.12010 | 233 ft | 3 kts | 126° |
| 2026-04-22 19:40 | 50.88221 | 7.12005 | 233 ft | 0 kts | 126° |
| 2026-04-22 19:46 | 50.88215 | 7.12018 | 233 ft | 7 kts | 126° |
| 2026-04-22 19:47 | 50.88205 | 7.12131 | 235 ft | 12 kts | 106° |
| 2026-04-22 19:47 | 50.88162 | 7.12239 | 232 ft | 11 kts | 119° |
| 2026-04-22 19:47 | 50.88156 | 7.12320 | 232 ft | 12 kts | 83° |
| 2026-04-22 19:47 | 50.88106 | 7.12468 | 232 ft | 12 kts | 134° |
| 2026-04-22 19:48 | 50.88074 | 7.12517 | 232 ft | 4 kts | 137° |
| 2026-04-22 19:48 | 50.88057 | 7.12541 | 232 ft | 3 kts | 138° |
| 2026-04-22 19:48 | 50.88057 | 7.12542 | 232 ft | 0 kts | 138° |
| 2026-04-22 19:49 | 50.88054 | 7.12545 | 232 ft | 0 kts | 138° |
| 2026-04-22 19:50 | 50.88032 | 7.12577 | 232 ft | 6 kts | 138° |
| 2026-04-22 19:50 | 50.88016 | 7.12600 | 232 ft | 0 kts | 136° |
| 2026-04-22 19:52 | 50.88014 | 7.12604 | 232 ft | 4 kts | 135° |
| 2026-04-22 19:52 | 50.87991 | 7.12667 | 232 ft | 0 kts | 104° |
| 2026-04-22 19:54 | 50.87990 | 7.12671 | 235 ft | 3 kts | 104° |
| 2026-04-22 19:54 | 50.87994 | 7.12739 | 240 ft | 6 kts | 74° |
| 2026-04-22 19:54 | 50.87999 | 7.12763 | 236 ft | 0 kts | 73° |
| 2026-04-22 20:00 | 50.88003 | 7.12785 | 237 ft | 8 kts | 73° |
| 2026-04-22 20:00 | 50.88017 | 7.12915 | 239 ft | 14 kts | 90° |
| 2026-04-22 20:01 | 50.87978 | 7.13009 | 239 ft | 0 kts | 137° |
| 2026-04-22 20:01 | 50.87974 | 7.13015 | 239 ft | 6 kts | 137° |
| 2026-04-22 20:02 | 50.87790 | 7.13285 | 239 ft | 73 kts | 137° |
| 2026-04-22 20:02 | 50.87253 | 7.14063 | 245 ft | 133 kts | 137° |
| 2026-04-22 20:02 | 50.86477 | 7.15208 | 462 ft | 159 kts | 134° |
| 2026-04-22 20:02 | 50.85663 | 7.16375 | 1231 ft | 158 kts | 135° |
| 2026-04-22 20:03 | 50.84842 | 7.17527 | 1945 ft | 158 kts | 134° |
| 2026-04-22 20:03 | 50.83983 | 7.18735 | 2390 ft | 175 kts | 134° |
| 2026-04-22 20:03 | 50.83017 | 7.20103 | 2699 ft | 197 kts | 135° |
| 2026-04-22 20:03 | 50.82043 | 7.21681 | 3198 ft | 205 kts | 122° |
| 2026-04-22 20:04 | 50.81486 | 7.23747 | 3928 ft | 206 kts | 99° |
| 2026-04-22 20:04 | 50.81272 | 7.26065 | 4449 ft | 224 kts | 97° |
| 2026-04-22 20:04 | 50.81049 | 7.28645 | 4868 ft | 248 kts | 97° |
| 2026-04-22 20:04 | 50.80811 | 7.31426 | 5524 ft | 260 kts | 96° |
| 2026-04-22 20:05 | 50.80566 | 7.34283 | 6383 ft | 265 kts | 96° |
| 2026-04-22 20:05 | 50.80315 | 7.37190 | 7234 ft | 268 kts | 96° |
| 2026-04-22 20:05 | 50.80058 | 7.40127 | 8095 ft | 271 kts | 96° |
| 2026-04-22 20:05 | 50.79800 | 7.43089 | 8934 ft | 274 kts | 96° |
| 2026-04-22 20:06 | 50.79537 | 7.46088 | 9796 ft | 277 kts | 96° |
| 2026-04-22 20:06 | 50.79269 | 7.49135 | 10223 ft | 280 kts | 96° |
| 2026-04-22 20:06 | 50.79000 | 7.52172 | 10328 ft | 280 kts | 96° |
| 2026-04-22 20:06 | 50.78811 | 7.55332 | 10355 ft | 303 kts | 86° |
| 2026-04-22 20:07 | 50.79192 | 7.58744 | 10354 ft | 327 kts | 69° |
| 2026-04-22 20:07 | 50.80272 | 7.61896 | 10348 ft | 330 kts | 51° |
| 2026-04-22 20:07 | 50.81898 | 7.64443 | 10352 ft | 323 kts | 41° |
| 2026-04-22 20:07 | 50.83602 | 7.66828 | 10356 ft | 329 kts | 42° |
| 2026-04-22 20:08 | 50.85287 | 7.69203 | 10358 ft | 327 kts | 42° |
| 2026-04-22 20:08 | 50.86949 | 7.71556 | 10352 ft | 315 kts | 42° |
| 2026-04-22 20:08 | 50.88615 | 7.73918 | 10493 ft | 330 kts | 42° |
| 2026-04-22 20:08 | 50.90341 | 7.76371 | 11161 ft | 336 kts | 42° |
| 2026-04-22 20:09 | 50.92094 | 7.78858 | 11892 ft | 340 kts | 41° |
| 2026-04-22 20:09 | 50.93988 | 7.81116 | 12611 ft | 343 kts | 31° |
| 2026-04-22 20:09 | 50.96158 | 7.82724 | 13356 ft | 347 kts | 19° |
| 2026-04-22 20:09 | 50.98492 | 7.83757 | 14058 ft | 351 kts | 16° |
| 2026-04-22 20:10 | 51.00853 | 7.84752 | 14291 ft | 351 kts | 16° |
| 2026-04-22 20:10 | 51.03213 | 7.85754 | 14348 ft | 351 kts | 16° |
| 2026-04-22 20:10 | 51.05570 | 7.86762 | 14375 ft | 352 kts | 16° |
| 2026-04-22 20:10 | 51.07947 | 7.87783 | 14940 ft | 355 kts | 16° |
| 2026-04-22 20:11 | 51.10306 | 7.88798 | 15608 ft | 357 kts | 16° |
| 2026-04-22 20:11 | 51.12749 | 7.89850 | 16240 ft | 360 kts | 16° |
| 2026-04-22 20:11 | 51.15144 | 7.90881 | 16840 ft | 363 kts | 16° |
| 2026-04-22 20:11 | 51.17593 | 7.91932 | 17440 ft | 366 kts | 16° |
| 2026-04-22 20:12 | 51.20066 | 7.92995 | 18033 ft | 369 kts | 16° |
| 2026-04-22 20:12 | 51.22562 | 7.94070 | 18610 ft | 373 kts | 16° |
| 2026-04-22 20:12 | 51.25078 | 7.95153 | 19105 ft | 376 kts | 16° |
| 2026-04-22 20:12 | 51.27612 | 7.96250 | 19591 ft | 379 kts | 16° |
| 2026-04-22 20:13 | 51.30171 | 7.97364 | 20075 ft | 383 kts | 16° |
| 2026-04-22 20:13 | 51.32752 | 7.98487 | 20519 ft | 387 kts | 16° |
| 2026-04-22 20:13 | 51.35363 | 7.99621 | 20977 ft | 390 kts | 17° |
| 2026-04-22 20:13 | 51.37996 | 8.00766 | 21430 ft | 394 kts | 17° |
| 2026-04-22 20:14 | 51.40647 | 8.01919 | 21881 ft | 397 kts | 17° |
| 2026-04-22 20:14 | 51.43323 | 8.03081 | 22332 ft | 400 kts | 17° |
| 2026-04-22 20:14 | 51.46018 | 8.04255 | 22771 ft | 403 kts | 17° |
| 2026-04-22 20:14 | 51.48733 | 8.05438 | 23213 ft | 406 kts | 17° |
| 2026-04-22 20:15 | 51.51473 | 8.06635 | 23648 ft | 409 kts | 17° |
| 2026-04-22 20:15 | 51.54232 | 8.07845 | 24025 ft | 413 kts | 17° |
| 2026-04-22 20:15 | 51.57014 | 8.09065 | 24355 ft | 416 kts | 17° |
| 2026-04-22 20:15 | 51.59815 | 8.10293 | 24704 ft | 418 kts | 17° |
| 2026-04-22 20:16 | 51.62630 | 8.11522 | 25057 ft | 421 kts | 17° |
| 2026-04-22 20:16 | 51.65461 | 8.12759 | 25412 ft | 423 kts | 17° |
| 2026-04-22 20:16 | 51.68307 | 8.14008 | 25764 ft | 425 kts | 18° |
| 2026-04-22 20:16 | 51.71164 | 8.15267 | 26114 ft | 427 kts | 18° |
| 2026-04-22 20:17 | 51.74033 | 8.16539 | 26456 ft | 429 kts | 18° |
| 2026-04-22 20:17 | 51.76917 | 8.17822 | 26793 ft | 431 kts | 18° |
| 2026-04-22 20:17 | 51.79820 | 8.19114 | 27111 ft | 434 kts | 18° |
| 2026-04-22 20:17 | 51.82741 | 8.20415 | 27418 ft | 436 kts | 18° |
| 2026-04-22 20:18 | 51.85672 | 8.21720 | 27739 ft | 438 kts | 18° |
| 2026-04-22 20:18 | 51.88581 | 8.23010 | 28037 ft | 440 kts | 18° |
| 2026-04-22 20:18 | 51.91546 | 8.24325 | 28346 ft | 442 kts | 18° |
| 2026-04-22 20:18 | 51.94519 | 8.25645 | 28644 ft | 444 kts | 18° |
| 2026-04-22 20:19 | 51.97505 | 8.26976 | 28937 ft | 446 kts | 18° |
| 2026-04-22 20:19 | 52.00505 | 8.28317 | 29196 ft | 448 kts | 19° |
| 2026-04-22 20:19 | 52.03523 | 8.29666 | 29448 ft | 451 kts | 19° |
| 2026-04-22 20:19 | 52.06550 | 8.31022 | 29757 ft | 452 kts | 19° |
| 2026-04-22 20:20 | 52.09578 | 8.32381 | 30169 ft | 451 kts | 19° |
| 2026-04-22 20:20 | 52.12597 | 8.33737 | 30564 ft | 450 kts | 19° |
| 2026-04-22 20:20 | 52.15615 | 8.35090 | 30889 ft | 449 kts | 19° |
| 2026-04-22 20:20 | 52.18630 | 8.36442 | 31240 ft | 448 kts | 19° |
| 2026-04-22 20:21 | 52.21632 | 8.37792 | 31580 ft | 447 kts | 19° |
| 2026-04-22 20:21 | 52.24626 | 8.39144 | 31896 ft | 447 kts | 20° |
| 2026-04-22 20:21 | 52.27624 | 8.40503 | 32220 ft | 447 kts | 20° |
| 2026-04-22 20:21 | 52.30618 | 8.41864 | 32558 ft | 446 kts | 20° |
| 2026-04-22 20:22 | 52.33601 | 8.43225 | 32889 ft | 445 kts | 20° |
| 2026-04-22 20:22 | 52.36586 | 8.44584 | 33225 ft | 444 kts | 20° |
| 2026-04-22 20:22 | 52.39560 | 8.45936 | 33570 ft | 443 kts | 20° |
| 2026-04-22 20:22 | 52.42531 | 8.47293 | 33893 ft | 443 kts | 22° |
| 2026-04-22 20:23 | 52.45493 | 8.48650 | 34217 ft | 442 kts | 22° |
| 2026-04-22 20:23 | 52.48454 | 8.50007 | 34505 ft | 442 kts | 23° |
| 2026-04-22 20:23 | 52.51413 | 8.51364 | 34783 ft | 441 kts | 22° |
| 2026-04-22 20:23 | 52.54369 | 8.52716 | 35064 ft | 440 kts | 22° |
| 2026-04-22 20:24 | 52.57321 | 8.54064 | 35304 ft | 440 kts | 22° |
| 2026-04-22 20:24 | 52.63235 | 8.56776 | 35380 ft | 442 kts | 22° |
| 2026-04-22 20:25 | 52.69154 | 8.59506 | 35382 ft | 442 kts | 22° |
| 2026-04-22 20:25 | 52.75063 | 8.62239 | 35384 ft | 441 kts | 23° |
| 2026-04-22 20:26 | 52.80965 | 8.64984 | 35382 ft | 441 kts | 23° |
| 2026-04-22 20:26 | 52.86868 | 8.67731 | 35383 ft | 441 kts | 23° |
| 2026-04-22 20:27 | 52.92776 | 8.70493 | 35382 ft | 441 kts | 23° |
| 2026-04-22 20:27 | 52.98637 | 8.73233 | 35374 ft | 440 kts | 23° |
| 2026-04-22 20:28 | 53.04587 | 8.75765 | 35381 ft | 447 kts | 15° |
| 2026-04-22 20:28 | 53.10888 | 8.76210 | 35383 ft | 455 kts | 8° |
| 2026-04-22 20:29 | 53.17216 | 8.76384 | 35383 ft | 455 kts | 8° |
| 2026-04-22 20:29 | 53.23547 | 8.76566 | 35383 ft | 455 kts | 8° |
| 2026-04-22 20:30 | 53.29878 | 8.76749 | 35380 ft | 455 kts | 8° |
| 2026-04-22 20:30 | 53.36209 | 8.76944 | 35382 ft | 455 kts | 8° |
| 2026-04-22 20:31 | 53.42543 | 8.77128 | 35344 ft | 456 kts | 8° |
| 2026-04-22 20:31 | 53.48883 | 8.77293 | 35356 ft | 456 kts | 8° |
| 2026-04-22 20:32 | 53.55229 | 8.77456 | 35364 ft | 456 kts | 8° |
| 2026-04-22 20:32 | 53.61572 | 8.77652 | 35372 ft | 456 kts | 8° |
| 2026-04-22 20:33 | 53.67912 | 8.77843 | 35355 ft | 456 kts | 8° |
| 2026-04-22 20:33 | 53.74255 | 8.78024 | 35379 ft | 456 kts | 8° |
| 2026-04-22 20:34 | 53.80600 | 8.78187 | 35383 ft | 456 kts | 8° |
| 2026-04-22 20:34 | 53.86944 | 8.78373 | 35383 ft | 456 kts | 8° |
| 2026-04-22 20:35 | 53.93241 | 8.78564 | 35352 ft | 456 kts | 8° |
| 2026-04-22 20:35 | 53.99574 | 8.78750 | 35371 ft | 455 kts | 8° |
| 2026-04-22 20:36 | 54.05905 | 8.78933 | 35374 ft | 455 kts | 8° |
| 2026-04-22 20:36 | 54.12226 | 8.79105 | 35377 ft | 454 kts | 8° |
| 2026-04-22 20:37 | 54.18547 | 8.79282 | 35356 ft | 454 kts | 8° |
| 2026-04-22 20:37 | 54.24856 | 8.79470 | 35367 ft | 453 kts | 8° |
| 2026-04-22 20:38 | 54.31157 | 8.79665 | 35375 ft | 453 kts | 8° |
| 2026-04-22 20:38 | 54.37460 | 8.79848 | 35376 ft | 453 kts | 8° |
| 2026-04-22 20:39 | 54.43758 | 8.80032 | 35357 ft | 452 kts | 8° |
| 2026-04-22 20:39 | 54.50045 | 8.80226 | 35377 ft | 452 kts | 8° |
| 2026-04-22 20:40 | 54.56320 | 8.80418 | 35377 ft | 451 kts | 8° |
| 2026-04-22 20:40 | 54.62595 | 8.80618 | 35379 ft | 451 kts | 8° |
| 2026-04-22 20:41 | 54.68870 | 8.80798 | 35351 ft | 451 kts | 8° |
| 2026-04-22 20:41 | 54.75132 | 8.80982 | 35367 ft | 450 kts | 7° |
| 2026-04-22 20:42 | 54.81388 | 8.81171 | 35373 ft | 449 kts | 7° |
| 2026-04-22 20:42 | 54.87635 | 8.81364 | 35372 ft | 449 kts | 7° |
| 2026-04-22 20:43 | 54.93883 | 8.81549 | 35372 ft | 449 kts | 7° |
| 2026-04-22 20:43 | 55.00080 | 8.81742 | 35353 ft | 448 kts | 7° |
| 2026-04-22 20:44 | 55.06316 | 8.81940 | 35357 ft | 448 kts | 7° |
| 2026-04-22 20:44 | 55.12554 | 8.82129 | 35358 ft | 448 kts | 7° |
| 2026-04-22 20:45 | 55.18788 | 8.82316 | 35357 ft | 448 kts | 7° |
| 2026-04-22 20:45 | 55.25022 | 8.82506 | 35341 ft | 448 kts | 7° |
| 2026-04-22 20:46 | 55.33334 | 8.82771 | 35344 ft | 449 kts | 7° |
| 2026-04-22 20:46 | 55.39586 | 8.82962 | 35354 ft | 449 kts | 7° |
| 2026-04-22 20:47 | 55.45838 | 8.83153 | 35353 ft | 449 kts | 7° |
| 2026-04-22 20:47 | 55.52087 | 8.83350 | 35345 ft | 449 kts | 7° |
| 2026-04-22 20:48 | 55.58334 | 8.83545 | 35338 ft | 449 kts | 7° |
| 2026-04-22 20:48 | 55.64578 | 8.83745 | 35340 ft | 449 kts | 7° |
| 2026-04-22 20:49 | 55.70817 | 8.83953 | 35339 ft | 449 kts | 7° |
| 2026-04-22 20:49 | 55.77057 | 8.84148 | 35340 ft | 449 kts | 7° |
| 2026-04-22 20:50 | 55.83297 | 8.84341 | 35338 ft | 449 kts | 7° |
| 2026-04-22 20:50 | 55.89542 | 8.84533 | 35341 ft | 448 kts | 7° |
| 2026-04-22 20:51 | 55.95784 | 8.84744 | 35346 ft | 448 kts | 7° |
| 2026-04-22 20:51 | 56.02022 | 8.84947 | 35334 ft | 448 kts | 6° |
| 2026-04-22 20:52 | 56.08253 | 8.85134 | 35346 ft | 448 kts | 6° |
| 2026-04-22 20:52 | 56.14441 | 8.85336 | 35346 ft | 447 kts | 7° |
| 2026-04-22 20:53 | 56.20665 | 8.85553 | 35339 ft | 447 kts | 7° |
| 2026-04-22 20:53 | 56.26887 | 8.85757 | 35304 ft | 447 kts | 6° |
| 2026-04-22 20:54 | 56.33104 | 8.85949 | 35309 ft | 447 kts | 6° |
| 2026-04-22 20:54 | 56.39317 | 8.86147 | 35317 ft | 446 kts | 6° |
| 2026-04-22 20:55 | 56.45526 | 8.86356 | 35322 ft | 446 kts | 6° |
| 2026-04-22 20:55 | 56.51737 | 8.86557 | 35322 ft | 446 kts | 6° |
| 2026-04-22 20:56 | 56.57941 | 8.86755 | 35315 ft | 446 kts | 6° |
| 2026-04-22 20:56 | 56.64142 | 8.86973 | 35307 ft | 446 kts | 6° |
| 2026-04-22 20:57 | 56.70351 | 8.86051 | 35303 ft | 455 kts | 350° |
| 2026-04-22 20:57 | 56.76192 | 8.81329 | 35305 ft | 468 kts | 329° |
| 2026-04-22 20:58 | 56.78797 | 8.77730 | 35152 ft | 472 kts | 326° |
| 2026-04-22 20:58 | 56.81404 | 8.74014 | 34024 ft | 481 kts | 326° |
| 2026-04-22 20:58 | 56.84066 | 8.70216 | 32952 ft | 487 kts | 325° |
| 2026-04-22 20:58 | 56.86733 | 8.66397 | 31949 ft | 490 kts | 325° |
| 2026-04-22 20:59 | 56.89401 | 8.62558 | 31202 ft | 487 kts | 324° |
| 2026-04-22 20:59 | 56.92063 | 8.58721 | 30269 ft | 488 kts | 324° |
| 2026-04-22 20:59 | 56.94734 | 8.54876 | 29160 ft | 489 kts | 324° |
| 2026-04-22 20:59 | 56.97405 | 8.51034 | 28066 ft | 483 kts | 324° |
| 2026-04-22 21:00 | 57.00027 | 8.47250 | 26613 ft | 478 kts | 324° |
| 2026-04-22 21:00 | 57.02587 | 8.43537 | 25943 ft | 460 kts | 324° |
| 2026-04-22 21:00 | 57.05078 | 8.39914 | 25251 ft | 456 kts | 324° |
| 2026-04-22 21:00 | 57.07556 | 8.36311 | 24531 ft | 453 kts | 324° |
| 2026-04-22 21:01 | 57.10019 | 8.32726 | 23819 ft | 450 kts | 323° |
| 2026-04-22 21:01 | 57.12469 | 8.29158 | 23039 ft | 446 kts | 323° |
| 2026-04-22 21:01 | 57.14885 | 8.25638 | 22410 ft | 440 kts | 323° |
| 2026-04-22 21:01 | 57.17273 | 8.22151 | 21775 ft | 435 kts | 324° |
| 2026-04-22 21:02 | 57.19596 | 8.18742 | 21174 ft | 430 kts | 324° |
| 2026-04-22 21:02 | 57.21919 | 8.15323 | 20600 ft | 425 kts | 323° |
| 2026-04-22 21:02 | 57.24218 | 8.11948 | 20027 ft | 419 kts | 326° |
| 2026-04-22 21:02 | 57.26659 | 8.09172 | 19499 ft | 409 kts | 338° |
| 2026-04-22 21:03 | 57.29305 | 8.07437 | 18987 ft | 399 kts | 349° |
| 2026-04-22 21:03 | 57.32023 | 8.06749 | 18475 ft | 391 kts | 359° |
| 2026-04-22 21:03 | 57.34709 | 8.07067 | 17942 ft | 383 kts | 11° |
| 2026-04-22 21:03 | 57.37299 | 8.07998 | 17456 ft | 376 kts | 12° |
| 2026-04-22 21:04 | 57.39846 | 8.08929 | 16976 ft | 371 kts | 12° |
| 2026-04-22 21:04 | 57.42368 | 8.09851 | 16473 ft | 367 kts | 12° |
| 2026-04-22 21:04 | 57.44863 | 8.10768 | 15967 ft | 364 kts | 12° |
| 2026-04-22 21:04 | 57.47339 | 8.11685 | 15455 ft | 362 kts | 11° |
| 2026-04-22 21:05 | 57.49801 | 8.12600 | 14931 ft | 360 kts | 11° |
| 2026-04-22 21:05 | 57.52249 | 8.13513 | 14400 ft | 358 kts | 11° |
| 2026-04-22 21:05 | 57.54690 | 8.14420 | 13831 ft | 357 kts | 11° |
| 2026-04-22 21:05 | 57.57124 | 8.15317 | 13259 ft | 355 kts | 10° |
| 2026-04-22 21:06 | 57.59539 | 8.16187 | 12697 ft | 352 kts | 8° |
| 2026-04-22 21:06 | 57.61967 | 8.16483 | 12140 ft | 349 kts | 360° |
| 2026-04-22 21:06 | 57.64384 | 8.16492 | 11571 ft | 346 kts | 360° |
| 2026-04-22 21:06 | 57.66779 | 8.16510 | 11074 ft | 341 kts | 360° |
| 2026-04-22 21:07 | 57.69100 | 8.16535 | 10943 ft | 326 kts | 360° |
| 2026-04-22 21:07 | 57.71317 | 8.16561 | 10818 ft | 312 kts | 360° |
| 2026-04-22 21:07 | 57.73433 | 8.16586 | 10691 ft | 294 kts | 360° |
| 2026-04-22 21:07 | 57.75417 | 8.16610 | 10393 ft | 278 kts | 359° |
| 2026-04-22 21:08 | 57.77323 | 8.16629 | 9909 ft | 270 kts | 359° |
| 2026-04-22 21:08 | 57.79190 | 8.16643 | 9768 ft | 269 kts | 359° |
| 2026-04-22 21:08 | 57.81060 | 8.16654 | 9640 ft | 268 kts | 359° |
| 2026-04-22 21:08 | 57.82927 | 8.16667 | 9505 ft | 268 kts | 359° |
| 2026-04-22 21:09 | 57.84791 | 8.16683 | 9208 ft | 268 kts | 359° |
| 2026-04-22 21:09 | 57.86648 | 8.16703 | 8824 ft | 266 kts | 359° |
| 2026-04-22 21:09 | 57.88496 | 8.16723 | 8426 ft | 265 kts | 359° |
| 2026-04-22 21:09 | 57.90321 | 8.16372 | 8032 ft | 263 kts | 344° |
| 2026-04-22 21:10 | 57.91988 | 8.15009 | 7632 ft | 262 kts | 327° |
| 2026-04-22 21:10 | 57.93355 | 8.12759 | 7232 ft | 262 kts | 311° |
| 2026-04-22 21:10 | 57.94408 | 8.10006 | 6847 ft | 262 kts | 306° |
| 2026-04-22 21:10 | 57.95465 | 8.07173 | 6357 ft | 266 kts | 306° |
| 2026-04-22 21:11 | 57.96523 | 8.04343 | 5974 ft | 261 kts | 306° |
| 2026-04-22 21:11 | 57.97541 | 8.01621 | 5594 ft | 248 kts | 306° |
| 2026-04-22 21:11 | 57.98514 | 7.99020 | 5226 ft | 237 kts | 306° |
| 2026-04-22 21:11 | 57.99445 | 7.96524 | 4848 ft | 232 kts | 306° |
| 2026-04-22 21:12 | 58.00373 | 7.94038 | 4505 ft | 231 kts | 307° |
| 2026-04-22 21:12 | 58.01274 | 7.91624 | 4449 ft | 222 kts | 307° |
| 2026-04-22 21:12 | 58.02163 | 7.89252 | 4369 ft | 219 kts | 309° |
| 2026-04-22 21:12 | 58.03318 | 7.87602 | 4264 ft | 205 kts | 347° |
| 2026-04-22 21:13 | 58.04687 | 7.87804 | 4041 ft | 202 kts | 26° |
| 2026-04-22 21:13 | 58.05863 | 7.89273 | 3782 ft | 203 kts | 35° |
| 2026-04-22 21:13 | 58.07016 | 7.90832 | 3500 ft | 205 kts | 34° |
| 2026-04-22 21:13 | 58.08184 | 7.92381 | 3188 ft | 205 kts | 34° |
| 2026-04-22 21:14 | 58.09333 | 7.93894 | 2880 ft | 195 kts | 34° |
| 2026-04-22 21:14 | 58.10398 | 7.95297 | 2611 ft | 180 kts | 34° |
| 2026-04-22 21:14 | 58.11391 | 7.96604 | 2341 ft | 168 kts | 33° |
| 2026-04-22 21:14 | 58.12317 | 7.97824 | 2083 ft | 157 kts | 32° |
| 2026-04-22 21:15 | 58.13185 | 7.98969 | 1853 ft | 147 kts | 33° |
| 2026-04-22 21:15 | 58.13988 | 8.00029 | 1642 ft | 137 kts | 33° |
| 2026-04-22 21:15 | 58.14764 | 8.01052 | 1427 ft | 136 kts | 32° |
| 2026-04-22 21:15 | 58.15537 | 8.02072 | 1214 ft | 135 kts | 33° |
| 2026-04-22 21:16 | 58.16299 | 8.03078 | 1028 ft | 133 kts | 33° |
| 2026-04-22 21:16 | 58.17052 | 8.04081 | 781 ft | 133 kts | 32° |
| 2026-04-22 21:16 | 58.17811 | 8.05093 | 570 ft | 134 kts | 31° |
| 2026-04-22 21:16 | 58.18582 | 8.06112 | 373 ft | 135 kts | 31° |
| 2026-04-22 21:17 | 58.19354 | 8.07130 | 199 ft | 135 kts | 30° |
| 2026-04-22 21:17 | 58.20114 | 8.08124 | 56 ft | 124 kts | 31° |
| 2026-04-22 21:17 | 58.20616 | 8.08801 | 56 ft | 46 kts | 36° |
| 2026-04-22 21:17 | 58.20777 | 8.09005 | 57 ft | 25 kts | 34° |
| 2026-04-22 21:18 | 58.20923 | 8.09195 | 60 ft | 26 kts | 35° |
| 2026-04-22 21:18 | 58.21072 | 8.09395 | 55 ft | 20 kts | 36° |
| 2026-04-22 21:18 | 58.21153 | 8.09501 | 54 ft | 12 kts | 304° |
| 2026-04-22 21:18 | 58.21087 | 8.09412 | 54 ft | 19 kts | 205° |
| 2026-04-22 21:19 | 58.20929 | 8.09207 | 60 ft | 30 kts | 215° |
| 2026-04-22 21:19 | 58.20754 | 8.08976 | 56 ft | 31 kts | 216° |
| 2026-04-22 21:19 | 58.20582 | 8.08737 | 50 ft | 27 kts | 229° |
| 2026-04-22 21:19 | 58.20549 | 8.08454 | 58 ft | 21 kts | 261° |
| 2026-04-22 21:20 | 58.20491 | 8.08202 | 54 ft | 22 kts | 231° |
| 2026-04-22 21:20 | 58.20392 | 8.07962 | 54 ft | 24 kts | 232° |
| 2026-04-22 21:20 | 58.20297 | 8.07730 | 54 ft | 10 kts | 241° |
| 2026-04-22 21:20 | 58.20305 | 8.07652 | 55 ft | 6 kts | 299° |
| 2026-04-22 21:21 | 58.20311 | 8.07634 | 51 ft | 0 kts | 300° |